createdAt,value
2023-05-12T00:00:07.259Z,18.20
2023-05-12T00:03:12.799Z,18.10
2023-05-12T00:06:05.880Z,18.10
2023-05-12T00:08:58.495Z,18.10
2023-05-12T00:11:51.481Z,18.10
2023-05-12T00:14:45.244Z,18.10
2023-05-12T00:17:40.931Z,18.10
2023-05-12T00:20:38.351Z,18.10
2023-05-12T00:23:36.654Z,18.10
2023-05-12T00:26:25.376Z,18.10
2023-05-12T00:29:11.824Z,18.00
2023-05-12T00:32:07.326Z,18.10
2023-05-12T00:34:54.812Z,18.10
2023-05-12T00:37:42.699Z,18.10
2023-05-12T00:40:29.732Z,18.10
2023-05-12T00:43:22.240Z,18.00
2023-05-12T00:46:13.767Z,18.10
2023-05-12T00:49:05.880Z,18.10
2023-05-12T00:51:52.234Z,18.10
2023-05-12T00:54:49.150Z,18.10
2023-05-12T00:57:35.306Z,18.10
2023-05-12T01:00:21.908Z,18.10
2023-05-12T01:03:09.322Z,18.00
2023-05-12T01:06:18.922Z,18.00
2023-05-12T01:09:06.161Z,18.00
2023-05-12T01:11:52.506Z,18.00
2023-05-12T01:14:41.440Z,18.00
2023-05-12T01:17:48.441Z,18.10
2023-05-12T01:20:41.249Z,17.90
2023-05-12T01:23:35.834Z,18.00
2023-05-12T01:26:28.023Z,18.00
2023-05-12T01:29:20.704Z,18.00
2023-05-12T01:32:33.541Z,18.00
2023-05-12T01:35:55.513Z,18.00
2023-05-12T01:39:04.493Z,18.00
2023-05-12T01:42:08.696Z,18.00
2023-05-12T01:45:28.238Z,18.00
2023-05-12T01:48:21.928Z,18.00
2023-05-12T01:51:15.500Z,18.00
2023-05-12T01:54:06.909Z,18.00
2023-05-12T01:57:02.878Z,18.10
2023-05-12T01:59:58.515Z,18.00
2023-05-12T02:02:49.651Z,17.90
2023-05-12T02:05:38.216Z,18.00
2023-05-12T02:08:37.481Z,18.00
2023-05-12T02:11:26.970Z,18.00
2023-05-12T02:14:13.297Z,18.00
2023-05-12T02:17:05.782Z,18.00
2023-05-12T02:19:56.640Z,18.10
2023-05-12T02:22:44.697Z,18.00
2023-05-12T02:25:42.339Z,18.00
2023-05-12T02:28:33.457Z,18.00
2023-05-12T02:31:29.948Z,18.00
2023-05-12T02:34:19.003Z,18.00
2023-05-12T02:37:10.261Z,18.00
2023-05-12T02:41:44.787Z,18.00
2023-05-12T02:44:30.129Z,18.00
2023-05-12T02:47:28.830Z,18.00
2023-05-12T02:50:27.648Z,18.00
2023-05-12T02:53:14.419Z,18.00
2023-05-12T02:56:01.402Z,18.00
2023-05-12T02:58:47.793Z,18.00
2023-05-12T03:01:40.044Z,18.00
2023-05-12T03:04:37.181Z,18.00
2023-05-12T03:07:24.420Z,18.00
2023-05-12T03:10:11.522Z,18.00
2023-05-12T03:13:02.302Z,18.00
2023-05-12T03:15:51.902Z,18.00
2023-05-12T03:18:39.081Z,18.00
2023-05-12T03:22:15.235Z,18.00
2023-05-12T03:24:40.226Z,18.00
2023-05-12T03:27:33.488Z,18.00
2023-05-12T03:30:24.686Z,18.00
2023-05-12T03:33:11.198Z,18.00
2023-05-12T03:36:07.680Z,18.00
2023-05-12T03:38:53.979Z,18.00
2023-05-12T03:41:40.264Z,18.00
2023-05-12T03:44:26.178Z,18.00
2023-05-12T03:47:12.850Z,18.00
2023-05-12T03:50:02.337Z,18.00
2023-05-12T03:52:55.568Z,18.00
2023-05-12T03:55:42.471Z,18.00
2023-05-12T03:58:32.220Z,18.00
2023-05-12T04:01:18.858Z,18.00
2023-05-12T04:04:05.483Z,18.00
2023-05-12T04:06:58.385Z,18.00
2023-05-12T04:09:49.085Z,18.10
2023-05-12T04:12:39.223Z,18.10
2023-05-12T04:15:29.218Z,18.10
2023-05-12T04:18:15.745Z,18.10
2023-05-12T04:21:02.773Z,18.10
2023-05-12T04:23:53.104Z,18.10
2023-05-12T04:26:48.103Z,18.10
2023-05-12T04:30:19.114Z,18.10
2023-05-12T04:34:31.055Z,18.00
2023-05-12T04:37:11.038Z,18.00
2023-05-12T04:39:57.580Z,18.00
2023-05-12T04:42:47.065Z,18.00
2023-05-12T04:45:38.196Z,18.10
2023-05-12T04:48:44.759Z,18.00
2023-05-12T04:51:54.027Z,18.00
2023-05-12T04:54:40.570Z,18.10
2023-05-12T04:57:34.374Z,18.10
2023-05-12T05:00:23.359Z,18.00
2023-05-12T05:03:12.331Z,18.10
2023-05-12T05:06:08.017Z,18.10
2023-05-12T05:08:59.341Z,18.10
2023-05-12T05:11:48.062Z,18.10
2023-05-12T05:14:38.411Z,18.10
2023-05-12T05:17:27.562Z,18.10
2023-05-12T05:20:16.055Z,18.00
2023-05-12T05:23:06.716Z,18.10
2023-05-12T05:26:01.754Z,18.10
2023-05-12T05:29:09.085Z,18.10
2023-05-12T05:31:57.338Z,18.10
2023-05-12T05:34:44.131Z,18.10
2023-05-12T05:41:47.306Z,18.10
2023-05-12T05:44:33.602Z,18.10
2023-05-12T05:47:20.895Z,18.10
2023-05-12T05:50:09.335Z,18.10
2023-05-12T05:52:57.752Z,18.10
2023-05-12T05:55:46.808Z,18.20
2023-05-12T05:58:33.533Z,18.20
2023-05-12T06:01:30.586Z,18.20
2023-05-12T06:04:17.090Z,18.20
2023-05-12T06:07:03.022Z,18.20
2023-05-12T06:09:49.011Z,18.20
2023-05-12T06:12:35.809Z,18.20
2023-05-12T06:15:22.282Z,18.20
2023-05-12T06:18:09.212Z,18.20
2023-05-12T06:20:55.134Z,18.20
2023-05-12T06:23:41.635Z,18.20
2023-05-12T06:26:27.283Z,18.20
2023-05-12T06:29:15.289Z,18.20
2023-05-12T06:32:01.335Z,18.20
2023-05-12T06:34:47.606Z,18.20
2023-05-12T06:37:36.238Z,18.20
2023-05-12T06:40:22.121Z,18.30
2023-05-12T06:43:08.068Z,18.20
2023-05-12T06:45:57.189Z,18.20
2023-05-12T06:48:43.319Z,18.20
2023-05-12T06:51:29.316Z,18.30
2023-05-12T06:54:15.313Z,18.30
2023-05-12T06:57:03.661Z,18.30
2023-05-12T06:59:50.650Z,18.30
2023-05-12T07:02:36.798Z,18.30
2023-05-12T07:05:23.082Z,18.30
2023-05-12T07:08:09.052Z,18.30
2023-05-12T07:10:55.052Z,18.30
2023-05-12T07:13:41.014Z,18.40
2023-05-12T07:16:27.227Z,18.50
2023-05-12T07:19:13.872Z,18.40
2023-05-12T07:22:00.004Z,18.50
2023-05-12T07:24:48.022Z,18.50
2023-05-12T07:27:34.556Z,18.60
2023-05-12T07:30:22.439Z,18.60
2023-05-12T07:33:08.993Z,18.70
2023-05-12T07:35:55.021Z,18.70
2023-05-12T07:38:40.871Z,18.70
2023-05-12T07:41:27.211Z,18.70
2023-05-12T07:44:12.877Z,18.70
2023-05-12T07:47:01.333Z,18.80
2023-05-12T07:49:49.541Z,18.80
2023-05-12T07:52:35.668Z,18.80
2023-05-12T07:55:23.410Z,18.80
2023-05-12T07:58:09.913Z,18.80
2023-05-12T08:00:59.277Z,18.80
2023-05-12T08:03:46.144Z,18.80
2023-05-12T08:06:32.670Z,18.80
2023-05-12T08:09:21.998Z,18.90
2023-05-12T08:12:08.155Z,19.00
2023-05-12T08:14:54.322Z,19.00
2023-05-12T08:17:46.255Z,18.90
2023-05-12T08:20:32.399Z,18.80
2023-05-12T08:23:25.606Z,18.80
2023-05-12T08:26:15.470Z,18.80
2023-05-12T08:29:01.718Z,18.80
2023-05-12T08:31:47.654Z,18.80
2023-05-12T08:34:37.244Z,18.90
2023-05-12T08:37:23.229Z,18.90
2023-05-12T08:40:21.057Z,18.90
2023-05-12T08:43:27.134Z,18.90
2023-05-12T08:46:17.548Z,18.80
2023-05-12T08:49:05.484Z,18.80
2023-05-12T08:51:58.086Z,18.80
2023-05-12T08:54:55.627Z,18.80
2023-05-12T08:57:45.815Z,18.80
2023-05-12T09:00:36.250Z,18.80
2023-05-12T09:03:23.757Z,18.90
2023-05-12T09:06:13.666Z,18.90
2023-05-12T09:09:00.623Z,19.00
2023-05-12T09:11:49.474Z,19.00
2023-05-12T09:14:37.820Z,19.10
2023-05-12T09:17:23.533Z,19.10
2023-05-12T09:20:23.793Z,19.20
2023-05-12T09:23:21.861Z,19.30
2023-05-12T09:26:07.635Z,19.40
2023-05-12T09:28:56.299Z,19.40
2023-05-12T09:31:57.163Z,19.40
2023-05-12T09:34:44.278Z,19.60
2023-05-12T09:37:33.808Z,19.60
2023-05-12T09:40:19.844Z,19.70
2023-05-12T09:43:09.592Z,19.70
2023-05-12T09:45:55.774Z,19.80
2023-05-12T09:48:41.835Z,19.80
2023-05-12T09:51:28.445Z,20.00
2023-05-12T09:54:26.791Z,20.10
2023-05-12T09:57:17.039Z,20.30
2023-05-12T10:00:06.108Z,20.40
2023-05-12T10:02:59.971Z,20.50
2023-05-12T10:05:58.538Z,20.60
2023-05-12T10:09:11.681Z,20.80
2023-05-12T10:12:01.439Z,21.00
2023-05-12T10:14:48.140Z,21.10
2023-05-12T10:17:37.360Z,21.20
2023-05-12T10:20:23.972Z,21.40
2023-05-12T10:23:13.607Z,21.40
2023-05-12T10:26:02.319Z,21.40
2023-05-12T10:28:50.303Z,21.50
2023-05-12T10:31:37.899Z,21.60
2023-05-12T10:34:41.089Z,21.60
2023-05-12T10:37:29.799Z,21.70
2023-05-12T10:40:25.425Z,21.70
2023-05-12T10:43:25.547Z,21.80
2023-05-12T10:46:19.602Z,22.00
2023-05-12T10:49:13.026Z,22.10
2023-05-12T10:52:01.815Z,22.10
2023-05-12T10:54:49.232Z,22.10
2023-05-12T10:57:38.387Z,22.10
2023-05-12T11:00:29.075Z,22.00
2023-05-12T11:03:20.521Z,22.10
2023-05-12T11:06:08.722Z,22.00
2023-05-12T11:08:58.885Z,22.00
2023-05-12T11:11:48.350Z,22.00
2023-05-12T11:14:37.442Z,21.90
2023-05-12T11:17:23.092Z,21.90
2023-05-12T11:20:15.142Z,21.90
2023-05-12T11:23:01.380Z,21.90
2023-05-12T11:25:49.874Z,21.90
2023-05-12T11:28:42.344Z,21.90
2023-05-12T11:31:28.102Z,21.90
2023-05-12T11:34:13.823Z,21.90
2023-05-12T11:37:00.681Z,22.00
2023-05-12T11:39:46.810Z,22.00
2023-05-12T11:42:34.681Z,21.90
2023-05-12T11:45:34.372Z,21.80
2023-05-12T11:48:21.740Z,21.70
2023-05-12T11:51:08.930Z,21.60
2023-05-12T11:53:55.728Z,21.60
2023-05-12T11:56:52.378Z,21.50
2023-05-12T11:59:37.970Z,21.40
2023-05-12T12:02:26.306Z,21.30
2023-05-12T12:05:21.299Z,21.20
2023-05-12T12:08:13.326Z,21.20
2023-05-12T12:11:01.983Z,21.10
2023-05-12T12:13:56.787Z,21.00
2023-05-12T12:16:42.541Z,21.00
2023-05-12T12:19:28.785Z,21.00
2023-05-12T12:22:14.962Z,20.90
2023-05-12T12:25:02.088Z,20.90
2023-05-12T12:27:49.627Z,20.80
2023-05-12T12:30:35.701Z,20.80
2023-05-12T12:33:22.149Z,20.80
2023-05-12T12:36:08.372Z,20.80
2023-05-12T12:38:54.788Z,20.80
2023-05-12T12:41:40.483Z,20.80
2023-05-12T12:44:26.206Z,20.80
2023-05-12T12:47:12.295Z,20.80
2023-05-12T12:49:58.851Z,20.80
2023-05-12T12:52:44.685Z,20.90
2023-05-12T12:55:30.741Z,20.90
2023-05-12T12:58:16.760Z,21.00
2023-05-12T13:01:02.857Z,21.00
2023-05-12T13:03:49.160Z,21.00
2023-05-12T13:06:35.348Z,20.90
2023-05-12T13:09:21.106Z,20.90
2023-05-12T13:12:08.121Z,21.00
2023-05-12T13:14:53.853Z,21.00
2023-05-12T13:17:40.491Z,21.00
2023-05-12T13:20:28.000Z,21.00
2023-05-12T13:23:15.023Z,21.10
2023-05-12T13:26:00.784Z,21.10
2023-05-12T13:28:46.650Z,21.10
2023-05-12T13:31:32.321Z,21.20
2023-05-12T13:34:18.269Z,21.20
2023-05-12T13:37:04.548Z,21.20
2023-05-12T13:39:51.198Z,21.20
2023-05-12T13:42:39.634Z,21.20
2023-05-12T13:45:25.915Z,21.10
2023-05-12T13:48:12.373Z,21.10
2023-05-12T13:50:58.704Z,21.00
2023-05-12T13:53:44.728Z,21.00
2023-05-12T13:56:33.813Z,21.00
2023-05-12T13:59:20.103Z,21.10
2023-05-12T14:02:09.835Z,21.10
2023-05-12T14:04:56.839Z,21.00
2023-05-12T14:07:42.730Z,21.00
2023-05-12T14:10:30.865Z,20.90
2023-05-12T14:13:20.382Z,20.80
2023-05-12T14:16:09.191Z,20.80
2023-05-12T14:18:55.766Z,20.80
2023-05-12T14:21:42.178Z,20.80
2023-05-12T14:24:29.104Z,20.80
2023-05-12T14:27:16.593Z,20.70
2023-05-12T14:30:04.023Z,20.70
2023-05-12T14:32:50.687Z,20.70
2023-05-12T14:35:38.968Z,20.70
2023-05-12T14:38:25.226Z,20.70
2023-05-12T14:41:11.313Z,20.70
2023-05-12T14:43:58.041Z,20.70
2023-05-12T14:46:44.062Z,20.70
2023-05-12T14:49:30.279Z,20.70
2023-05-12T14:52:16.491Z,20.70
2023-05-12T14:55:02.910Z,20.60
2023-05-12T14:57:50.283Z,20.60
2023-05-12T15:00:37.779Z,20.60
2023-05-12T15:03:24.667Z,20.50
2023-05-12T15:06:11.651Z,20.50
2023-05-12T15:08:57.843Z,20.50
2023-05-12T15:11:47.268Z,20.60
2023-05-12T15:14:33.151Z,20.60
2023-05-12T15:17:19.083Z,20.60
2023-05-12T15:20:08.396Z,20.60
2023-05-12T15:22:54.922Z,20.70
2023-05-12T15:25:41.267Z,20.70
2023-05-12T15:28:28.076Z,20.60
2023-05-12T15:31:14.004Z,20.60
2023-05-12T15:34:00.627Z,20.60
2023-05-12T15:36:48.735Z,20.60
2023-05-12T15:39:35.087Z,20.60
2023-05-12T15:42:26.190Z,20.60
2023-05-12T15:45:15.859Z,20.60
2023-05-12T15:48:02.224Z,20.60
2023-05-12T15:50:49.253Z,20.50
2023-05-12T15:53:35.485Z,20.50
2023-05-12T15:56:23.468Z,20.50
2023-05-12T15:59:11.535Z,20.40
2023-05-12T16:01:58.603Z,20.40
2023-05-12T16:04:45.670Z,20.30
2023-05-12T16:07:32.083Z,20.30
2023-05-12T16:10:18.003Z,20.20
2023-05-12T16:13:04.237Z,20.20
2023-05-12T16:15:51.469Z,20.20
2023-05-12T16:18:40.364Z,20.20
2023-05-12T16:21:26.190Z,20.30
2023-05-12T16:24:12.409Z,20.30
2023-05-12T16:26:59.495Z,20.30
2023-05-12T16:29:47.738Z,20.40
2023-05-12T16:32:34.009Z,20.40
2023-05-12T16:35:21.307Z,20.50
2023-05-12T16:38:07.210Z,20.50
2023-05-12T16:40:53.221Z,20.50
2023-05-12T16:43:39.788Z,20.40
2023-05-12T16:46:28.318Z,20.40
2023-05-12T16:49:15.028Z,20.40
2023-05-12T16:52:01.088Z,20.50
2023-05-12T16:54:47.958Z,20.50
2023-05-12T16:57:36.365Z,20.40
2023-05-12T17:00:22.760Z,20.40
2023-05-12T17:03:09.126Z,20.40
2023-05-12T17:05:55.292Z,20.40
2023-05-12T17:08:42.916Z,20.40
2023-05-12T17:11:28.813Z,20.30
2023-05-12T17:14:14.478Z,20.30
2023-05-12T17:17:00.967Z,20.30
2023-05-12T17:19:46.813Z,20.30
2023-05-12T17:22:52.393Z,20.20
2023-05-12T17:25:44.133Z,20.10
2023-05-12T17:28:33.290Z,20.10
2023-05-12T17:31:19.750Z,20.10
2023-05-12T17:34:08.065Z,20.10
2023-05-12T17:36:57.219Z,20.10
2023-05-12T17:39:48.517Z,20.00
2023-05-12T17:42:40.133Z,20.00
2023-05-12T17:45:31.433Z,20.00
2023-05-12T17:48:19.097Z,20.00
2023-05-12T17:51:06.416Z,19.90
2023-05-12T17:53:56.520Z,19.80
2023-05-12T17:56:44.789Z,19.80
2023-05-12T17:59:30.858Z,19.80
2023-05-12T18:02:18.676Z,19.70
2023-05-12T18:05:09.984Z,19.60
2023-05-12T18:07:56.592Z,19.60
2023-05-12T18:10:42.537Z,19.60
2023-05-12T18:13:35.867Z,19.60
2023-05-12T18:16:29.952Z,19.60
2023-05-12T18:19:16.248Z,19.50
2023-05-12T18:22:02.297Z,19.50
2023-05-12T18:24:51.195Z,19.40
2023-05-12T18:27:38.684Z,19.50
2023-05-12T18:30:25.112Z,19.50
2023-05-12T18:33:12.661Z,19.50
2023-05-12T18:35:58.676Z,19.50
2023-05-12T18:38:48.152Z,19.50
2023-05-12T18:41:34.296Z,19.50
2023-05-12T18:45:07.984Z,19.40
2023-05-12T18:47:33.652Z,19.50
2023-05-12T18:50:24.289Z,19.50
2023-05-12T18:53:21.625Z,19.40
2023-05-12T18:56:09.424Z,19.40
2023-05-12T18:59:00.149Z,19.40
2023-05-12T19:01:48.703Z,19.50
2023-05-12T19:04:38.588Z,19.50
2023-05-12T19:07:24.818Z,19.50
2023-05-12T19:10:16.153Z,19.40
2023-05-12T19:13:14.917Z,19.40
2023-05-12T19:16:06.933Z,19.40
2023-05-12T19:18:53.338Z,19.40
2023-05-12T19:21:50.387Z,19.40
2023-05-12T19:24:39.335Z,19.40
2023-05-12T19:27:29.333Z,19.30
2023-05-12T19:30:18.155Z,19.30
2023-05-12T19:33:04.452Z,19.30
2023-05-12T19:35:56.008Z,19.30
2023-05-12T19:38:44.748Z,19.20
2023-05-12T19:41:41.590Z,19.20
2023-05-12T19:44:30.254Z,19.20
2023-05-12T19:47:19.324Z,19.20
2023-05-12T19:50:06.363Z,19.20
2023-05-12T19:52:52.416Z,19.20
2023-05-12T19:55:40.003Z,19.20
2023-05-12T19:58:29.022Z,19.20
2023-05-12T20:01:17.590Z,19.20
2023-05-12T20:04:06.219Z,19.10
2023-05-12T20:06:59.302Z,19.00
2023-05-12T20:09:45.150Z,19.00
2023-05-12T20:12:30.948Z,19.00
2023-05-12T20:15:17.269Z,19.00
2023-05-12T20:18:03.381Z,19.00
2023-05-12T20:20:51.948Z,19.00
2023-05-12T20:23:37.970Z,19.00
2023-05-12T20:26:30.721Z,19.00
2023-05-12T20:29:21.036Z,19.10
2023-05-12T20:32:07.815Z,19.10
2023-05-12T20:34:54.002Z,19.10
2023-05-12T20:37:41.251Z,19.10
2023-05-12T20:40:28.674Z,19.10
2023-05-12T20:43:15.976Z,19.10
2023-05-12T20:46:07.350Z,19.10
2023-05-12T20:48:52.971Z,19.10
2023-05-12T20:51:39.298Z,19.10
2023-05-12T20:54:28.118Z,19.20
2023-05-12T20:57:14.402Z,19.10
2023-05-12T21:00:00.651Z,19.10
2023-05-12T21:02:49.508Z,19.10
2023-05-12T21:05:45.220Z,19.10
2023-05-12T21:08:31.316Z,19.10
2023-05-12T21:11:32.576Z,19.00
2023-05-12T21:14:19.750Z,19.10
2023-05-12T21:17:08.434Z,19.10
2023-05-12T21:19:56.883Z,19.00
2023-05-12T21:22:42.987Z,19.00
2023-05-12T21:25:32.641Z,19.00
2023-05-12T21:28:26.347Z,19.00
2023-05-12T21:31:17.085Z,19.00
2023-05-12T21:34:03.456Z,19.00
2023-05-12T21:36:55.476Z,19.00
2023-05-12T21:39:41.651Z,18.90
2023-05-12T21:42:27.840Z,18.90
2023-05-12T21:45:15.205Z,18.90
2023-05-12T21:48:01.215Z,18.90
2023-05-12T21:50:59.082Z,18.80
2023-05-12T21:53:46.446Z,18.80
2023-05-12T21:56:34.884Z,18.80
2023-05-12T21:59:27.504Z,18.80
2023-05-12T22:02:16.246Z,18.80
2023-05-12T22:05:06.190Z,18.80
2023-05-12T22:07:56.202Z,18.80
2023-05-12T22:10:44.831Z,18.80
2023-05-12T22:13:30.820Z,18.80
2023-05-12T22:16:19.863Z,18.70
2023-05-12T22:19:11.391Z,18.70
2023-05-12T22:22:01.217Z,18.70
2023-05-12T22:24:47.472Z,18.70
2023-05-12T22:27:38.471Z,18.70
2023-05-12T22:30:27.069Z,18.70
2023-05-12T22:33:17.108Z,18.70
2023-05-12T22:36:03.296Z,18.80
2023-05-12T22:38:51.688Z,18.80
2023-05-12T22:41:40.809Z,18.80
2023-05-12T22:44:26.797Z,18.80
2023-05-12T22:47:12.977Z,18.80
2023-05-12T22:50:00.301Z,18.80
2023-05-12T22:52:58.118Z,18.80
2023-05-12T22:55:53.829Z,18.70
2023-05-12T22:58:47.070Z,18.70
2023-05-12T23:01:33.544Z,18.70
2023-05-12T23:04:20.061Z,18.60
2023-05-12T23:07:09.833Z,18.60
2023-05-12T23:09:55.940Z,18.60
2023-05-12T23:12:47.313Z,18.60
2023-05-12T23:15:33.474Z,18.60
2023-05-12T23:18:23.008Z,18.60
2023-05-12T23:21:09.233Z,18.60
2023-05-12T23:24:09.632Z,18.60
2023-05-12T23:26:58.407Z,18.60
2023-05-12T23:29:47.566Z,18.60
2023-05-12T23:32:33.615Z,18.50
2023-05-12T23:35:19.474Z,18.60
2023-05-12T23:38:12.902Z,18.60
2023-05-12T23:41:00.267Z,18.60
2023-05-12T23:43:46.464Z,18.60
2023-05-12T23:46:32.919Z,18.60
2023-05-12T23:49:25.760Z,18.60
2023-05-12T23:52:11.670Z,18.60
2023-05-12T23:54:57.873Z,18.60
2023-05-12T23:57:46.632Z,18.60
